sensor_id;sensor_type;location;lat;lon;timestamp;P1;durP1;ratioP1;P2;durP2;ratioP2
61638;SDS011;47544;52.484;4.658;2023-05-07T00:00:07;29.20;;;23.23;;
61638;SDS011;47544;52.484;4.658;2023-05-07T00:00:18;29.58;;;23.40;;
61638;SDS011;47544;52.484;4.658;2023-05-07T00:00:29;29.98;;;23.33;;
61638;SDS011;47544;52.484;4.658;2023-05-07T00:00:41;28.83;;;23.15;;
61638;SDS011;47544;52.484;4.658;2023-05-07T00:00:53;28.55;;;22.98;;
61638;SDS011;47544;52.484;4.658;2023-05-07T00:01:04;27.98;;;23.08;;
61638;SDS011;47544;52.484;4.658;2023-05-07T00:01:16;28.95;;;23.42;;
61638;SDS011;47544;52.484;4.658;2023-05-07T00:01:27;29.70;;;23.45;;
61638;SDS011;47544;52.484;4.658;2023-05-07T00:01:41;30.42;;;23.02;;
61638;SDS011;47544;52.484;4.658;2023-05-07T00:01:52;29.60;;;23.00;;
61638;SDS011;47544;52.484;4.658;2023-05-07T00:02:06;29.65;;;23.00;;
61638;SDS011;47544;52.484;4.658;2023-05-07T00:02:17;30.35;;;22.85;;
61638;SDS011;47544;52.484;4.658;2023-05-07T00:02:29;32.28;;;22.92;;
61638;SDS011;47544;52.484;4.658;2023-05-07T00:02:42;32.63;;;23.02;;
61638;SDS011;47544;52.484;4.658;2023-05-07T00:02:53;31.95;;;23.05;;
61638;SDS011;47544;52.484;4.658;2023-05-07T00:03:04;30.92;;;23.23;;
61638;SDS011;47544;52.484;4.658;2023-05-07T00:03:19;31.27;;;23.50;;
61638;SDS011;47544;52.484;4.658;2023-05-07T00:03:30;31.88;;;23.25;;
61638;SDS011;47544;52.484;4.658;2023-05-07T00:03:42;31.23;;;22.83;;
61638;SDS011;47544;52.484;4.658;2023-05-07T00:03:56;29.55;;;22.60;;
61638;SDS011;47544;52.484;4.658;2023-05-07T00:04:07;28.20;;;22.15;;
61638;SDS011;47544;52.484;4.658;2023-05-07T00:04:18;26.35;;;22.25;;
61638;SDS011;47544;52.484;4.658;2023-05-07T00:04:29;27.48;;;22.50;;
61638;SDS011;47544;52.484;4.658;2023-05-07T00:04:46;28.05;;;21.85;;
61638;SDS011;47544;52.484;4.658;2023-05-07T00:04:57;28.63;;;21.63;;
61638;SDS011;47544;52.484;4.658;2023-05-07T00:05:08;29.60;;;21.77;;
61638;SDS011;47544;52.484;4.658;2023-05-07T00:05:19;29.90;;;22.38;;
61638;SDS011;47544;52.484;4.658;2023-05-07T00:05:31;28.48;;;22.58;;
61638;SDS011;47544;52.484;4.658;2023-05-07T00:05:42;27.92;;;22.50;;
61638;SDS011;47544;52.484;4.658;2023-05-07T00:05:52;28.52;;;22.50;;
61638;SDS011;47544;52.484;4.658;2023-05-07T00:06:05;29.60;;;22.67;;
61638;SDS011;47544;52.484;4.658;2023-05-07T00:06:16;29.48;;;22.88;;
61638;SDS011;47544;52.484;4.658;2023-05-07T00:06:27;27.63;;;22.48;;
61638;SDS011;47544;52.484;4.658;2023-05-07T00:06:39;28.45;;;22.38;;
61638;SDS011;47544;52.484;4.658;2023-05-07T00:06:51;28.27;;;22.30;;
61638;SDS011;47544;52.484;4.658;2023-05-07T00:07:02;27.97;;;22.43;;
61638;SDS011;47544;52.484;4.658;2023-05-07T00:07:13;26.65;;;22.17;;
61638;SDS011;47544;52.484;4.658;2023-05-07T00:07:24;27.23;;;22.00;;
61638;SDS011;47544;52.484;4.658;2023-05-07T00:07:35;27.58;;;22.25;;
61638;SDS011;47544;52.484;4.658;2023-05-07T00:07:46;27.10;;;22.52;;
61638;SDS011;47544;52.484;4.658;2023-05-07T00:07:57;27.10;;;22.73;;
61638;SDS011;47544;52.484;4.658;2023-05-07T00:08:08;28.15;;;22.48;;
61638;SDS011;47544;52.484;4.658;2023-05-07T00:08:20;29.08;;;22.52;;
61638;SDS011;47544;52.484;4.658;2023-05-07T00:08:31;30.77;;;22.55;;
61638;SDS011;47544;52.484;4.658;2023-05-07T00:08:42;29.67;;;22.52;;
61638;SDS011;47544;52.484;4.658;2023-05-07T00:08:53;29.73;;;22.23;;
61638;SDS011;47544;52.484;4.658;2023-05-07T00:09:03;29.30;;;22.33;;
61638;SDS011;47544;52.484;4.658;2023-05-07T00:09:15;29.15;;;22.08;;
61638;SDS011;47544;52.484;4.658;2023-05-07T00:09:28;28.90;;;22.23;;
61638;SDS011;47544;52.484;4.658;2023-05-07T00:09:39;28.38;;;22.55;;
61638;SDS011;47544;52.484;4.658;2023-05-07T00:09:50;28.42;;;22.73;;
61638;SDS011;47544;52.484;4.658;2023-05-07T00:10:02;27.45;;;22.20;;
61638;SDS011;47544;52.484;4.658;2023-05-07T00:10:13;28.20;;;22.35;;
61638;SDS011;47544;52.484;4.658;2023-05-07T00:10:24;28.52;;;22.35;;
61638;SDS011;47544;52.484;4.658;2023-05-07T00:10:35;29.45;;;22.67;;
61638;SDS011;47544;52.484;4.658;2023-05-07T00:10:46;30.77;;;22.67;;
61638;SDS011;47544;52.484;4.658;2023-05-07T00:10:57;31.35;;;22.75;;
61638;SDS011;47544;52.484;4.658;2023-05-07T00:11:08;30.08;;;22.17;;
61638;SDS011;47544;52.484;4.658;2023-05-07T00:11:19;28.70;;;22.27;;
61638;SDS011;47544;52.484;4.658;2023-05-07T00:11:31;29.17;;;23.05;;
61638;SDS011;47544;52.484;4.658;2023-05-07T00:11:42;29.30;;;23.40;;
61638;SDS011;47544;52.484;4.658;2023-05-07T00:11:53;28.38;;;23.50;;
61638;SDS011;47544;52.484;4.658;2023-05-07T00:12:04;28.70;;;23.52;;
61638;SDS011;47544;52.484;4.658;2023-05-07T00:12:15;28.75;;;23.73;;
61638;SDS011;47544;52.484;4.658;2023-05-07T00:12:26;27.58;;;22.95;;
61638;SDS011;47544;52.484;4.658;2023-05-07T00:12:37;27.93;;;22.73;;
61638;SDS011;47544;52.484;4.658;2023-05-07T00:12:51;29.63;;;23.02;;
61638;SDS011;47544;52.484;4.658;2023-05-07T00:13:03;29.45;;;22.77;;
61638;SDS011;47544;52.484;4.658;2023-05-07T00:13:13;28.75;;;22.85;;
61638;SDS011;47544;52.484;4.658;2023-05-07T00:13:24;28.30;;;22.05;;
61638;SDS011;47544;52.484;4.658;2023-05-07T00:13:35;29.55;;;22.00;;
61638;SDS011;47544;52.484;4.658;2023-05-07T00:13:47;29.08;;;22.05;;
61638;SDS011;47544;52.484;4.658;2023-05-07T00:13:58;28.70;;;22.30;;
61638;SDS011;47544;52.484;4.658;2023-05-07T00:14:09;27.58;;;22.35;;
61638;SDS011;47544;52.484;4.658;2023-05-07T00:14:20;27.77;;;22.10;;
61638;SDS011;47544;52.484;4.658;2023-05-07T00:14:32;28.13;;;22.17;;
61638;SDS011;47544;52.484;4.658;2023-05-07T00:14:45;28.33;;;22.10;;
61638;SDS011;47544;52.484;4.658;2023-05-07T00:14:59;29.85;;;22.30;;
61638;SDS011;47544;52.484;4.658;2023-05-07T00:15:10;30.45;;;22.48;;
61638;SDS011;47544;52.484;4.658;2023-05-07T00:15:21;30.33;;;22.50;;
61638;SDS011;47544;52.484;4.658;2023-05-07T00:15:32;29.95;;;22.52;;
61638;SDS011;47544;52.484;4.658;2023-05-07T00:15:43;29.55;;;22.55;;
61638;SDS011;47544;52.484;4.658;2023-05-07T00:15:54;29.33;;;22.77;;
61638;SDS011;47544;52.484;4.658;2023-05-07T00:16:06;28.90;;;22.40;;
61638;SDS011;47544;52.484;4.658;2023-05-07T00:16:18;30.05;;;22.67;;
61638;SDS011;47544;52.484;4.658;2023-05-07T00:16:28;29.80;;;22.92;;
61638;SDS011;47544;52.484;4.658;2023-05-07T00:16:39;29.88;;;22.92;;
61638;SDS011;47544;52.484;4.658;2023-05-07T00:16:50;31.10;;;22.85;;
61638;SDS011;47544;52.484;4.658;2023-05-07T00:17:01;30.65;;;22.75;;
61638;SDS011;47544;52.484;4.658;2023-05-07T00:17:12;29.55;;;22.90;;
61638;SDS011;47544;52.484;4.658;2023-05-07T00:17:23;28.40;;;22.55;;
61638;SDS011;47544;52.484;4.658;2023-05-07T00:17:34;27.90;;;22.37;;
61638;SDS011;47544;52.484;4.658;2023-05-07T00:17:47;29.15;;;22.60;;
61638;SDS011;47544;52.484;4.658;2023-05-07T00:17:59;30.25;;;22.67;;
61638;SDS011;47544;52.484;4.658;2023-05-07T00:18:10;28.88;;;22.73;;
61638;SDS011;47544;52.484;4.658;2023-05-07T00:18:23;30.13;;;22.70;;
61638;SDS011;47544;52.484;4.658;2023-05-07T00:18:34;29.98;;;23.05;;
61638;SDS011;47544;52.484;4.658;2023-05-07T00:18:45;30.15;;;23.35;;
61638;SDS011;47544;52.484;4.658;2023-05-07T00:18:58;32.30;;;23.88;;
61638;SDS011;47544;52.484;4.658;2023-05-07T00:19:09;31.80;;;23.65;;
61638;SDS011;47544;52.484;4.658;2023-05-07T00:19:21;30.00;;;23.08;;
61638;SDS011;47544;52.484;4.658;2023-05-07T00:19:32;30.55;;;22.90;;
61638;SDS011;47544;52.484;4.658;2023-05-07T00:19:43;30.07;;;22.97;;
61638;SDS011;47544;52.484;4.658;2023-05-07T00:19:54;28.15;;;22.88;;
61638;SDS011;47544;52.484;4.658;2023-05-07T00:20:07;27.40;;;23.02;;
61638;SDS011;47544;52.484;4.658;2023-05-07T00:20:21;28.88;;;23.05;;
61638;SDS011;47544;52.484;4.658;2023-05-07T00:20:32;30.58;;;23.10;;
61638;SDS011;47544;52.484;4.658;2023-05-07T00:20:42;31.70;;;23.33;;
61638;SDS011;47544;52.484;4.658;2023-05-07T00:20:55;32.05;;;23.63;;
61638;SDS011;47544;52.484;4.658;2023-05-07T00:21:08;30.90;;;24.02;;
61638;SDS011;47544;52.484;4.658;2023-05-07T00:21:19;30.02;;;23.30;;
61638;SDS011;47544;52.484;4.658;2023-05-07T00:21:33;30.10;;;23.15;;
61638;SDS011;47544;52.484;4.658;2023-05-07T00:21:44;29.73;;;23.15;;
61638;SDS011;47544;52.484;4.658;2023-05-07T00:21:54;30.38;;;23.73;;
61638;SDS011;47544;52.484;4.658;2023-05-07T00:22:06;30.85;;;24.10;;
61638;SDS011;47544;52.484;4.658;2023-05-07T00:22:18;30.88;;;24.00;;
61638;SDS011;47544;52.484;4.658;2023-05-07T00:22:29;30.42;;;24.00;;
61638;SDS011;47544;52.484;4.658;2023-05-07T00:22:40;29.02;;;23.63;;
61638;SDS011;47544;52.484;4.658;2023-05-07T00:22:51;29.13;;;23.85;;
61638;SDS011;47544;52.484;4.658;2023-05-07T00:23:02;29.48;;;24.08;;
61638;SDS011;47544;52.484;4.658;2023-05-07T00:23:13;29.42;;;23.77;;
61638;SDS011;47544;52.484;4.658;2023-05-07T00:23:24;30.10;;;23.63;;
61638;SDS011;47544;52.484;4.658;2023-05-07T00:23:35;30.90;;;23.90;;
61638;SDS011;47544;52.484;4.658;2023-05-07T00:23:47;31.52;;;24.13;;
61638;SDS011;47544;52.484;4.658;2023-05-07T00:23:58;31.88;;;24.55;;
61638;SDS011;47544;52.484;4.658;2023-05-07T00:24:09;32.70;;;25.20;;
61638;SDS011;47544;52.484;4.658;2023-05-07T00:24:20;31.10;;;25.23;;
61638;SDS011;47544;52.484;4.658;2023-05-07T00:24:31;30.60;;;24.38;;
61638;SDS011;47544;52.484;4.658;2023-05-07T00:24:41;32.35;;;24.35;;
61638;SDS011;47544;52.484;4.658;2023-05-07T00:24:54;32.90;;;24.58;;
61638;SDS011;47544;52.484;4.658;2023-05-07T00:25:05;31.67;;;24.50;;
61638;SDS011;47544;52.484;4.658;2023-05-07T00:25:20;30.60;;;23.77;;
61638;SDS011;47544;52.484;4.658;2023-05-07T00:25:31;29.87;;;23.00;;
61638;SDS011;47544;52.484;4.658;2023-05-07T00:25:42;28.43;;;23.23;;
61638;SDS011;47544;52.484;4.658;2023-05-07T00:25:53;30.30;;;23.67;;
61638;SDS011;47544;52.484;4.658;2023-05-07T00:26:05;31.30;;;24.00;;
61638;SDS011;47544;52.484;4.658;2023-05-07T00:26:16;31.23;;;24.02;;
61638;SDS011;47544;52.484;4.658;2023-05-07T00:26:27;29.83;;;23.93;;
61638;SDS011;47544;52.484;4.658;2023-05-07T00:26:38;29.92;;;24.42;;
61638;SDS011;47544;52.484;4.658;2023-05-07T00:26:52;30.95;;;24.58;;
61638;SDS011;47544;52.484;4.658;2023-05-07T00:27:04;31.92;;;24.92;;
61638;SDS011;47544;52.484;4.658;2023-05-07T00:27:15;31.98;;;24.63;;
61638;SDS011;47544;52.484;4.658;2023-05-07T00:27:25;31.75;;;24.70;;
61638;SDS011;47544;52.484;4.658;2023-05-07T00:27:36;32.63;;;24.73;;
61638;SDS011;47544;52.484;4.658;2023-05-07T00:27:47;31.20;;;24.60;;
61638;SDS011;47544;52.484;4.658;2023-05-07T00:27:58;31.58;;;24.25;;
61638;SDS011;47544;52.484;4.658;2023-05-07T00:28:14;31.63;;;23.85;;
61638;SDS011;47544;52.484;4.658;2023-05-07T00:28:25;31.20;;;23.70;;
61638;SDS011;47544;52.484;4.658;2023-05-07T00:28:36;32.58;;;23.50;;
61638;SDS011;47544;52.484;4.658;2023-05-07T00:28:47;32.53;;;23.98;;
61638;SDS011;47544;52.484;4.658;2023-05-07T00:28:58;31.00;;;24.10;;
61638;SDS011;47544;52.484;4.658;2023-05-07T00:29:09;30.65;;;24.27;;
61638;SDS011;47544;52.484;4.658;2023-05-07T00:29:20;30.58;;;24.10;;
61638;SDS011;47544;52.484;4.658;2023-05-07T00:29:31;31.60;;;24.20;;
61638;SDS011;47544;52.484;4.658;2023-05-07T00:29:42;30.83;;;23.92;;
61638;SDS011;47544;52.484;4.658;2023-05-07T00:29:53;29.40;;;23.73;;
61638;SDS011;47544;52.484;4.658;2023-05-07T00:30:06;27.98;;;23.60;;
61638;SDS011;47544;52.484;4.658;2023-05-07T00:30:17;29.55;;;23.80;;
61638;SDS011;47544;52.484;4.658;2023-05-07T00:30:30;29.38;;;23.95;;
61638;SDS011;47544;52.484;4.658;2023-05-07T00:30:41;27.67;;;23.92;;
61638;SDS011;47544;52.484;4.658;2023-05-07T00:30:53;28.50;;;24.10;;
61638;SDS011;47544;52.484;4.658;2023-05-07T00:31:04;28.42;;;23.70;;
61638;SDS011;47544;52.484;4.658;2023-05-07T00:31:15;29.55;;;23.83;;
61638;SDS011;47544;52.484;4.658;2023-05-07T00:31:26;28.85;;;23.60;;
61638;SDS011;47544;52.484;4.658;2023-05-07T00:31:37;29.23;;;24.17;;
61638;SDS011;47544;52.484;4.658;2023-05-07T00:31:51;29.13;;;24.60;;
61638;SDS011;47544;52.484;4.658;2023-05-07T00:32:05;29.48;;;24.05;;
61638;SDS011;47544;52.484;4.658;2023-05-07T00:32:16;28.88;;;23.10;;
61638;SDS011;47544;52.484;4.658;2023-05-07T00:32:28;30.02;;;23.30;;
61638;SDS011;47544;52.484;4.658;2023-05-07T00:32:39;30.20;;;24.20;;
61638;SDS011;47544;52.484;4.658;2023-05-07T00:32:50;29.55;;;24.45;;
61638;SDS011;47544;52.484;4.658;2023-05-07T00:33:01;29.65;;;24.20;;
61638;SDS011;47544;52.484;4.658;2023-05-07T00:33:13;29.08;;;24.20;;
61638;SDS011;47544;52.484;4.658;2023-05-07T00:33:24;28.80;;;24.35;;
61638;SDS011;47544;52.484;4.658;2023-05-07T00:33:37;29.40;;;24.33;;
61638;SDS011;47544;52.484;4.658;2023-05-07T00:33:48;32.38;;;24.58;;
61638;SDS011;47544;52.484;4.658;2023-05-07T00:33:59;32.88;;;24.38;;
61638;SDS011;47544;52.484;4.658;2023-05-07T00:34:10;33.63;;;24.57;;
61638;SDS011;47544;52.484;4.658;2023-05-07T00:34:21;33.30;;;24.80;;
61638;SDS011;47544;52.484;4.658;2023-05-07T00:34:32;33.65;;;25.27;;
61638;SDS011;47544;52.484;4.658;2023-05-07T00:34:44;31.90;;;24.77;;
61638;SDS011;47544;52.484;4.658;2023-05-07T00:34:55;31.58;;;24.52;;
61638;SDS011;47544;52.484;4.658;2023-05-07T00:35:07;30.55;;;24.40;;
61638;SDS011;47544;52.484;4.658;2023-05-07T00:35:18;33.20;;;24.67;;
61638;SDS011;47544;52.484;4.658;2023-05-07T00:35:29;32.95;;;24.65;;
61638;SDS011;47544;52.484;4.658;2023-05-07T00:35:44;32.35;;;24.48;;
61638;SDS011;47544;52.484;4.658;2023-05-07T00:35:55;31.25;;;25.05;;
61638;SDS011;47544;52.484;4.658;2023-05-07T00:36:07;31.67;;;25.45;;
61638;SDS011;47544;52.484;4.658;2023-05-07T00:36:20;31.58;;;25.20;;
61638;SDS011;47544;52.484;4.658;2023-05-07T00:36:31;31.67;;;24.88;;
61638;SDS011;47544;52.484;4.658;2023-05-07T00:36:42;32.35;;;25.35;;
61638;SDS011;47544;52.484;4.658;2023-05-07T00:36:52;31.73;;;25.50;;
61638;SDS011;47544;52.484;4.658;2023-05-07T00:37:05;30.27;;;24.90;;
61638;SDS011;47544;52.484;4.658;2023-05-07T00:37:17;29.45;;;24.23;;
61638;SDS011;47544;52.484;4.658;2023-05-07T00:37:29;30.52;;;24.92;;
61638;SDS011;47544;52.484;4.658;2023-05-07T00:37:40;32.55;;;25.70;;
61638;SDS011;47544;52.484;4.658;2023-05-07T00:37:52;34.45;;;25.75;;
61638;SDS011;47544;52.484;4.658;2023-05-07T00:38:03;34.70;;;25.57;;
61638;SDS011;47544;52.484;4.658;2023-05-07T00:38:15;34.25;;;25.48;;
61638;SDS011;47544;52.484;4.658;2023-05-07T00:38:28;32.70;;;25.60;;
61638;SDS011;47544;52.484;4.658;2023-05-07T00:38:39;33.22;;;26.17;;
61638;SDS011;47544;52.484;4.658;2023-05-07T00:38:53;34.00;;;26.40;;
61638;SDS011;47544;52.484;4.658;2023-05-07T00:39:05;33.80;;;26.27;;
61638;SDS011;47544;52.484;4.658;2023-05-07T00:39:17;33.85;;;25.90;;
61638;SDS011;47544;52.484;4.658;2023-05-07T00:39:28;33.75;;;25.48;;
61638;SDS011;47544;52.484;4.658;2023-05-07T00:39:40;34.42;;;25.40;;
61638;SDS011;47544;52.484;4.658;2023-05-07T00:39:51;34.38;;;26.02;;
61638;SDS011;47544;52.484;4.658;2023-05-07T00:40:02;34.38;;;25.90;;
61638;SDS011;47544;52.484;4.658;2023-05-07T00:40:15;33.58;;;25.83;;
61638;SDS011;47544;52.484;4.658;2023-05-07T00:40:27;33.47;;;25.85;;
61638;SDS011;47544;52.484;4.658;2023-05-07T00:40:39;31.45;;;25.30;;
61638;SDS011;47544;52.484;4.658;2023-05-07T00:40:51;30.33;;;25.52;;
61638;SDS011;47544;52.484;4.658;2023-05-07T00:41:02;30.40;;;25.33;;
61638;SDS011;47544;52.484;4.658;2023-05-07T00:41:13;31.43;;;25.50;;
61638;SDS011;47544;52.484;4.658;2023-05-07T00:41:24;31.25;;;25.23;;
61638;SDS011;47544;52.484;4.658;2023-05-07T00:41:35;30.80;;;25.33;;
61638;SDS011;47544;52.484;4.658;2023-05-07T00:41:46;31.52;;;25.38;;
61638;SDS011;47544;52.484;4.658;2023-05-07T00:41:57;31.83;;;25.48;;
61638;SDS011;47544;52.484;4.658;2023-05-07T00:42:08;32.10;;;25.38;;
61638;SDS011;47544;52.484;4.658;2023-05-07T00:42:20;31.65;;;25.65;;
61638;SDS011;47544;52.484;4.658;2023-05-07T00:42:32;33.45;;;25.67;;
61638;SDS011;47544;52.484;4.658;2023-05-07T00:42:43;31.85;;;25.40;;
61638;SDS011;47544;52.484;4.658;2023-05-07T00:42:57;30.92;;;24.83;;
61638;SDS011;47544;52.484;4.658;2023-05-07T00:43:09;30.75;;;25.02;;
61638;SDS011;47544;52.484;4.658;2023-05-07T00:43:20;31.75;;;25.77;;
61638;SDS011;47544;52.484;4.658;2023-05-07T00:43:33;33.58;;;26.38;;
61638;SDS011;47544;52.484;4.658;2023-05-07T00:43:44;33.65;;;25.85;;
61638;SDS011;47544;52.484;4.658;2023-05-07T00:43:55;32.60;;;25.70;;
61638;SDS011;47544;52.484;4.658;2023-05-07T00:44:07;33.50;;;25.55;;
61638;SDS011;47544;52.484;4.658;2023-05-07T00:44:18;32.47;;;25.48;;
61638;SDS011;47544;52.484;4.658;2023-05-07T00:44:29;31.83;;;25.98;;
61638;SDS011;47544;52.484;4.658;2023-05-07T00:44:41;30.13;;;26.35;;
61638;SDS011;47544;52.484;4.658;2023-05-07T00:44:53;33.42;;;26.83;;
61638;SDS011;47544;52.484;4.658;2023-05-07T00:45:05;34.92;;;26.67;;
61638;SDS011;47544;52.484;4.658;2023-05-07T00:45:16;35.63;;;26.60;;
61638;SDS011;47544;52.484;4.658;2023-05-07T00:45:27;33.47;;;26.20;;
61638;SDS011;47544;52.484;4.658;2023-05-07T00:45:38;32.15;;;25.63;;
61638;SDS011;47544;52.484;4.658;2023-05-07T00:45:50;32.15;;;25.08;;
61638;SDS011;47544;52.484;4.658;2023-05-07T00:46:01;32.78;;;25.13;;
61638;SDS011;47544;52.484;4.658;2023-05-07T00:46:12;32.00;;;24.75;;
61638;SDS011;47544;52.484;4.658;2023-05-07T00:46:24;31.40;;;25.05;;
61638;SDS011;47544;52.484;4.658;2023-05-07T00:46:35;30.88;;;25.05;;
61638;SDS011;47544;52.484;4.658;2023-05-07T00:46:48;30.58;;;25.10;;
61638;SDS011;47544;52.484;4.658;2023-05-07T00:47:01;30.48;;;24.88;;
61638;SDS011;47544;52.484;4.658;2023-05-07T00:47:12;31.15;;;25.50;;
61638;SDS011;47544;52.484;4.658;2023-05-07T00:47:24;32.90;;;25.98;;
61638;SDS011;47544;52.484;4.658;2023-05-07T00:47:37;34.72;;;26.27;;
61638;SDS011;47544;52.484;4.658;2023-05-07T00:47:49;35.95;;;26.20;;
61638;SDS011;47544;52.484;4.658;2023-05-07T00:48:00;34.80;;;25.85;;
61638;SDS011;47544;52.484;4.658;2023-05-07T00:48:11;35.92;;;26.02;;
61638;SDS011;47544;52.484;4.658;2023-05-07T00:48:23;36.17;;;26.38;;
61638;SDS011;47544;52.484;4.658;2023-05-07T00:48:35;33.92;;;26.15;;
61638;SDS011;47544;52.484;4.658;2023-05-07T00:48:47;31.63;;;25.73;;
61638;SDS011;47544;52.484;4.658;2023-05-07T00:48:58;30.83;;;25.88;;
61638;SDS011;47544;52.484;4.658;2023-05-07T00:49:10;32.53;;;25.90;;
61638;SDS011;47544;52.484;4.658;2023-05-07T00:49:21;35.67;;;26.55;;
61638;SDS011;47544;52.484;4.658;2023-05-07T00:49:35;37.13;;;27.25;;
61638;SDS011;47544;52.484;4.658;2023-05-07T00:49:50;34.63;;;27.30;;
61638;SDS011;47544;52.484;4.658;2023-05-07T00:50:04;35.10;;;27.13;;
61638;SDS011;47544;52.484;4.658;2023-05-07T00:50:16;36.97;;;27.42;;
61638;SDS011;47544;52.484;4.658;2023-05-07T00:50:29;39.40;;;28.27;;
61638;SDS011;47544;52.484;4.658;2023-05-07T00:50:40;37.38;;;28.17;;
61638;SDS011;47544;52.484;4.658;2023-05-07T00:50:52;36.10;;;27.33;;
61638;SDS011;47544;52.484;4.658;2023-05-07T00:51:05;36.75;;;27.67;;
61638;SDS011;47544;52.484;4.658;2023-05-07T00:51:17;36.58;;;27.35;;
61638;SDS011;47544;52.484;4.658;2023-05-07T00:51:29;36.42;;;27.90;;
61638;SDS011;47544;52.484;4.658;2023-05-07T00:51:40;37.85;;;28.65;;
61638;SDS011;47544;52.484;4.658;2023-05-07T00:51:52;40.00;;;28.55;;
61638;SDS011;47544;52.484;4.658;2023-05-07T00:52:03;39.40;;;28.63;;
61638;SDS011;47544;52.484;4.658;2023-05-07T00:52:15;38.70;;;28.50;;
61638;SDS011;47544;52.484;4.658;2023-05-07T00:52:26;37.17;;;28.65;;
61638;SDS011;47544;52.484;4.658;2023-05-07T00:52:38;37.55;;;28.58;;
61638;SDS011;47544;52.484;4.658;2023-05-07T00:52:49;37.97;;;28.33;;
61638;SDS011;47544;52.484;4.658;2023-05-07T00:53:00;36.83;;;27.52;;
61638;SDS011;47544;52.484;4.658;2023-05-07T00:53:11;35.65;;;27.23;;
61638;SDS011;47544;52.484;4.658;2023-05-07T00:53:23;35.75;;;27.00;;
61638;SDS011;47544;52.484;4.658;2023-05-07T00:53:34;35.70;;;26.90;;
61638;SDS011;47544;52.484;4.658;2023-05-07T00:53:45;34.85;;;26.85;;
61638;SDS011;47544;52.484;4.658;2023-05-07T00:53:56;35.28;;;26.92;;
61638;SDS011;47544;52.484;4.658;2023-05-07T00:54:07;35.70;;;27.10;;
61638;SDS011;47544;52.484;4.658;2023-05-07T00:54:19;35.58;;;27.23;;
61638;SDS011;47544;52.484;4.658;2023-05-07T00:54:30;35.40;;;27.58;;
61638;SDS011;47544;52.484;4.658;2023-05-07T00:54:44;35.90;;;27.63;;
61638;SDS011;47544;52.484;4.658;2023-05-07T00:54:55;36.40;;;27.58;;
61638;SDS011;47544;52.484;4.658;2023-05-07T00:55:07;37.30;;;28.13;;
61638;SDS011;47544;52.484;4.658;2023-05-07T00:55:18;36.45;;;28.38;;
61638;SDS011;47544;52.484;4.658;2023-05-07T00:55:29;36.00;;;28.77;;
61638;SDS011;47544;52.484;4.658;2023-05-07T00:55:40;37.35;;;28.70;;
61638;SDS011;47544;52.484;4.658;2023-05-07T00:55:51;37.13;;;28.50;;
61638;SDS011;47544;52.484;4.658;2023-05-07T00:56:02;36.25;;;28.10;;
61638;SDS011;47544;52.484;4.658;2023-05-07T00:56:13;36.17;;;29.10;;
61638;SDS011;47544;52.484;4.658;2023-05-07T00:56:24;37.92;;;29.52;;
61638;SDS011;47544;52.484;4.658;2023-05-07T00:56:37;40.20;;;29.70;;
61638;SDS011;47544;52.484;4.658;2023-05-07T00:56:49;39.13;;;28.90;;
61638;SDS011;47544;52.484;4.658;2023-05-07T00:57:01;38.72;;;28.88;;
61638;SDS011;47544;52.484;4.658;2023-05-07T00:57:13;39.50;;;29.50;;
61638;SDS011;47544;52.484;4.658;2023-05-07T00:57:24;39.92;;;30.02;;
61638;SDS011;47544;52.484;4.658;2023-05-07T00:57:36;39.70;;;30.17;;
61638;SDS011;47544;52.484;4.658;2023-05-07T00:57:47;39.10;;;29.77;;
61638;SDS011;47544;52.484;4.658;2023-05-07T00:57:59;39.83;;;29.52;;
61638;SDS011;47544;52.484;4.658;2023-05-07T00:58:12;40.35;;;29.83;;
61638;SDS011;47544;52.484;4.658;2023-05-07T00:58:23;38.72;;;29.50;;
61638;SDS011;47544;52.484;4.658;2023-05-07T00:58:34;38.65;;;29.40;;
61638;SDS011;47544;52.484;4.658;2023-05-07T00:58:45;38.38;;;29.15;;
61638;SDS011;47544;52.484;4.658;2023-05-07T00:58:56;37.72;;;28.80;;
61638;SDS011;47544;52.484;4.658;2023-05-07T00:59:08;38.40;;;28.77;;
61638;SDS011;47544;52.484;4.658;2023-05-07T00:59:19;38.28;;;28.45;;
61638;SDS011;47544;52.484;4.658;2023-05-07T00:59:30;38.65;;;28.42;;
61638;SDS011;47544;52.484;4.658;2023-05-07T00:59:43;38.45;;;28.88;;
61638;SDS011;47544;52.484;4.658;2023-05-07T00:59:54;40.03;;;29.42;;
61638;SDS011;47544;52.484;4.658;2023-05-07T01:00:06;39.53;;;29.77;;
61638;SDS011;47544;52.484;4.658;2023-05-07T01:00:19;39.45;;;29.42;;
61638;SDS011;47544;52.484;4.658;2023-05-07T01:00:30;39.75;;;29.42;;
61638;SDS011;47544;52.484;4.658;2023-05-07T01:00:41;41.25;;;29.77;;
61638;SDS011;47544;52.484;4.658;2023-05-07T01:00:52;40.78;;;29.60;;
61638;SDS011;47544;52.484;4.658;2023-05-07T01:01:04;39.88;;;29.15;;
61638;SDS011;47544;52.484;4.658;2023-05-07T01:01:15;38.33;;;29.05;;
61638;SDS011;47544;52.484;4.658;2023-05-07T01:01:27;38.42;;;29.48;;
61638;SDS011;47544;52.484;4.658;2023-05-07T01:01:38;39.72;;;30.25;;
61638;SDS011;47544;52.484;4.658;2023-05-07T01:01:48;38.45;;;29.92;;
61638;SDS011;47544;52.484;4.658;2023-05-07T01:02:00;38.40;;;28.80;;
61638;SDS011;47544;52.484;4.658;2023-05-07T01:02:10;38.70;;;28.38;;
61638;SDS011;47544;52.484;4.658;2023-05-07T01:02:22;38.88;;;28.88;;
61638;SDS011;47544;52.484;4.658;2023-05-07T01:02:33;38.38;;;29.27;;
61638;SDS011;47544;52.484;4.658;2023-05-07T01:02:44;37.88;;;29.08;;
61638;SDS011;47544;52.484;4.658;2023-05-07T01:02:57;35.53;;;28.35;;
61638;SDS011;47544;52.484;4.658;2023-05-07T01:03:08;35.58;;;28.48;;
61638;SDS011;47544;52.484;4.658;2023-05-07T01:03:19;36.95;;;28.58;;
61638;SDS011;47544;52.484;4.658;2023-05-07T01:03:31;38.17;;;29.02;;
61638;SDS011;47544;52.484;4.658;2023-05-07T01:03:42;38.10;;;29.13;;
61638;SDS011;47544;52.484;4.658;2023-05-07T01:03:52;38.38;;;29.00;;
61638;SDS011;47544;52.484;4.658;2023-05-07T01:04:03;37.88;;;28.70;;
61638;SDS011;47544;52.484;4.658;2023-05-07T01:04:14;37.38;;;28.48;;
61638;SDS011;47544;52.484;4.658;2023-05-07T01:04:26;36.53;;;28.08;;
61638;SDS011;47544;52.484;4.658;2023-05-07T01:04:37;36.33;;;28.15;;
61638;SDS011;47544;52.484;4.658;2023-05-07T01:04:48;35.78;;;28.58;;
61638;SDS011;47544;52.484;4.658;2023-05-07T01:04:59;37.25;;;28.98;;
61638;SDS011;47544;52.484;4.658;2023-05-07T01:05:11;37.50;;;28.52;;
61638;SDS011;47544;52.484;4.658;2023-05-07T01:05:23;38.25;;;28.13;;
61638;SDS011;47544;52.484;4.658;2023-05-07T01:05:34;37.60;;;27.80;;
61638;SDS011;47544;52.484;4.658;2023-05-07T01:05:46;36.58;;;28.02;;
61638;SDS011;47544;52.484;4.658;2023-05-07T01:05:58;35.72;;;28.67;;
61638;SDS011;47544;52.484;4.658;2023-05-07T01:06:11;36.25;;;28.50;;
61638;SDS011;47544;52.484;4.658;2023-05-07T01:06:24;37.20;;;28.88;;
61638;SDS011;47544;52.484;4.658;2023-05-07T01:06:36;38.55;;;29.45;;
61638;SDS011;47544;52.484;4.658;2023-05-07T01:06:48;39.15;;;28.77;;
61638;SDS011;47544;52.484;4.658;2023-05-07T01:06:59;38.80;;;28.25;;
61638;SDS011;47544;52.484;4.658;2023-05-07T01:07:11;37.88;;;28.63;;
61638;SDS011;47544;52.484;4.658;2023-05-07T01:07:23;37.30;;;29.13;;
61638;SDS011;47544;52.484;4.658;2023-05-07T01:07:34;33.80;;;28.27;;
61638;SDS011;47544;52.484;4.658;2023-05-07T01:07:47;33.60;;;27.73;;